Terminal Aerodrome Forecast
Issued by NWS Albuquerque, NM

Home | Current Version | Previous Version | Text Only | Print | Product List | Glossary On
Versions: 1 2 3 4 5 6 7 8 9 10 11 12 13 14 15 16 17
000
FTUS45 KABQ 022326
TAFABQ
TAF
KABQ 022326Z 0300/0324 25010KT P6SM VCSH SCT060 BKN100
     FM030300 32006KT P6SM VCSH BKN060
     FM030600 VRB05KT P6SM FEW050 BKN100
     FM031500 28006KT P6SM FEW150=

USA.gov is the U.S. government's official web portal to all federal, state and local government web resources and services.